sensor_id;sensor_type;location;lat;lon;timestamp;P1;durP1;ratioP1;P2;durP2;ratioP2
948;SDS011;461;51.436;7.312;2023-05-25T00:00:45;15.00;;;7.30;;
948;SDS011;461;51.436;7.312;2023-05-25T00:03:13;12.93;;;8.20;;
948;SDS011;461;51.436;7.312;2023-05-25T00:05:40;17.97;;;8.80;;
948;SDS011;461;51.436;7.312;2023-05-25T00:08:13;17.50;;;7.40;;
948;SDS011;461;51.436;7.312;2023-05-25T00:10:44;11.13;;;7.70;;
948;SDS011;461;51.436;7.312;2023-05-25T00:13:14;11.90;;;8.03;;
948;SDS011;461;51.436;7.312;2023-05-25T00:15:40;17.03;;;7.57;;
948;SDS011;461;51.436;7.312;2023-05-25T00:18:08;15.73;;;7.70;;
948;SDS011;461;51.436;7.312;2023-05-25T00:20:37;17.63;;;7.90;;
948;SDS011;461;51.436;7.312;2023-05-25T00:23:08;14.27;;;7.80;;
948;SDS011;461;51.436;7.312;2023-05-25T00:25:34;12.60;;;7.63;;
948;SDS011;461;51.436;7.312;2023-05-25T00:28:03;12.90;;;8.40;;
948;SDS011;461;51.436;7.312;2023-05-25T00:30:30;15.77;;;8.83;;
948;SDS011;461;51.436;7.312;2023-05-25T00:32:56;12.60;;;8.40;;
948;SDS011;461;51.436;7.312;2023-05-25T00:35:25;15.73;;;9.50;;
948;SDS011;461;51.436;7.312;2023-05-25T00:37:51;13.80;;;8.60;;
948;SDS011;461;51.436;7.312;2023-05-25T00:40:17;13.23;;;8.53;;
948;SDS011;461;51.436;7.312;2023-05-25T00:42:44;17.00;;;8.80;;
948;SDS011;461;51.436;7.312;2023-05-25T00:45:11;13.47;;;9.80;;
948;SDS011;461;51.436;7.312;2023-05-25T00:47:39;17.37;;;8.27;;
948;SDS011;461;51.436;7.312;2023-05-25T00:50:07;15.97;;;8.07;;
948;SDS011;461;51.436;7.312;2023-05-25T00:52:34;16.33;;;8.23;;
948;SDS011;461;51.436;7.312;2023-05-25T00:55:05;16.73;;;8.23;;
948;SDS011;461;51.436;7.312;2023-05-25T00:57:42;15.37;;;6.90;;
948;SDS011;461;51.436;7.312;2023-05-25T01:00:14;14.90;;;8.57;;
948;SDS011;461;51.436;7.312;2023-05-25T01:02:41;12.87;;;8.30;;
948;SDS011;461;51.436;7.312;2023-05-25T01:05:09;15.37;;;8.57;;
948;SDS011;461;51.436;7.312;2023-05-25T01:07:37;18.93;;;8.97;;
948;SDS011;461;51.436;7.312;2023-05-25T01:10:06;16.50;;;8.47;;
948;SDS011;461;51.436;7.312;2023-05-25T01:12:36;20.80;;;9.47;;
948;SDS011;461;51.436;7.312;2023-05-25T01:15:05;13.20;;;7.90;;
948;SDS011;461;51.436;7.312;2023-05-25T01:17:31;22.47;;;9.30;;
948;SDS011;461;51.436;7.312;2023-05-25T01:20:02;23.60;;;9.63;;
948;SDS011;461;51.436;7.312;2023-05-25T01:22:36;18.17;;;9.60;;
948;SDS011;461;51.436;7.312;2023-05-25T01:25:12;10.77;;;8.47;;
948;SDS011;461;51.436;7.312;2023-05-25T01:27:56;21.20;;;11.17;;
948;SDS011;461;51.436;7.312;2023-05-25T01:30:27;16.13;;;7.67;;
948;SDS011;461;51.436;7.312;2023-05-25T01:32:57;18.10;;;8.97;;
948;SDS011;461;51.436;7.312;2023-05-25T01:35:29;12.03;;;8.20;;
948;SDS011;461;51.436;7.312;2023-05-25T01:37:57;12.90;;;8.90;;
948;SDS011;461;51.436;7.312;2023-05-25T01:40:29;13.60;;;7.93;;
948;SDS011;461;51.436;7.312;2023-05-25T01:42:59;12.57;;;8.50;;
948;SDS011;461;51.436;7.312;2023-05-25T01:45:34;16.87;;;8.23;;
948;SDS011;461;51.436;7.312;2023-05-25T01:54:11;13.63;;;8.50;;
948;SDS011;461;51.436;7.312;2023-05-25T01:56:24;13.63;;;8.47;;
948;SDS011;461;51.436;7.312;2023-05-25T01:58:55;11.77;;;8.30;;
948;SDS011;461;51.436;7.312;2023-05-25T02:01:26;14.60;;;8.10;;
948;SDS011;461;51.436;7.312;2023-05-25T02:03:53;13.70;;;9.13;;
948;SDS011;461;51.436;7.312;2023-05-25T02:06:20;24.60;;;9.80;;
948;SDS011;461;51.436;7.312;2023-05-25T02:08:46;14.90;;;8.57;;
948;SDS011;461;51.436;7.312;2023-05-25T02:11:14;15.57;;;9.13;;
948;SDS011;461;51.436;7.312;2023-05-25T02:13:40;20.33;;;10.40;;
948;SDS011;461;51.436;7.312;2023-05-25T02:16:11;15.00;;;9.33;;
948;SDS011;461;51.436;7.312;2023-05-25T02:18:43;14.83;;;10.43;;
948;SDS011;461;51.436;7.312;2023-05-25T02:21:10;12.60;;;8.80;;
948;SDS011;461;51.436;7.312;2023-05-25T02:23:36;13.80;;;9.20;;
948;SDS011;461;51.436;7.312;2023-05-25T02:26:08;17.30;;;9.20;;
948;SDS011;461;51.436;7.312;2023-05-25T02:28:40;17.83;;;9.00;;
948;SDS011;461;51.436;7.312;2023-05-25T02:31:13;15.17;;;9.03;;
948;SDS011;461;51.436;7.312;2023-05-25T02:33:42;12.93;;;8.00;;
948;SDS011;461;51.436;7.312;2023-05-25T02:42:35;16.50;;;8.80;;
948;SDS011;461;51.436;7.312;2023-05-25T02:45:10;13.83;;;8.33;;
948;SDS011;461;51.436;7.312;2023-05-25T02:47:43;20.83;;;9.30;;
948;SDS011;461;51.436;7.312;2023-05-25T02:54:02;12.97;;;8.10;;
948;SDS011;461;51.436;7.312;2023-05-25T02:56:42;17.33;;;11.40;;
948;SDS011;461;51.436;7.312;2023-05-25T03:02:21;16.23;;;8.30;;
948;SDS011;461;51.436;7.312;2023-05-25T03:05:00;13.33;;;8.77;;
948;SDS011;461;51.436;7.312;2023-05-25T03:08:18;16.07;;;8.53;;
948;SDS011;461;51.436;7.312;2023-05-25T03:17:46;11.67;;;8.07;;
948;SDS011;461;51.436;7.312;2023-05-25T03:20:24;11.53;;;8.70;;
948;SDS011;461;51.436;7.312;2023-05-25T03:22:57;14.53;;;8.93;;
948;SDS011;461;51.436;7.312;2023-05-25T03:25:27;14.13;;;8.90;;
948;SDS011;461;51.436;7.312;2023-05-25T03:27:56;16.30;;;9.20;;
948;SDS011;461;51.436;7.312;2023-05-25T03:30:30;14.10;;;8.07;;
948;SDS011;461;51.436;7.312;2023-05-25T03:33:08;10.97;;;7.70;;
948;SDS011;461;51.436;7.312;2023-05-25T03:35:51;12.73;;;8.37;;
948;SDS011;461;51.436;7.312;2023-05-25T03:38:42;13.57;;;7.87;;
948;SDS011;461;51.436;7.312;2023-05-25T03:41:27;12.63;;;7.90;;
948;SDS011;461;51.436;7.312;2023-05-25T03:44:02;14.27;;;8.23;;
948;SDS011;461;51.436;7.312;2023-05-25T03:46:57;9.90;;;7.87;;
948;SDS011;461;51.436;7.312;2023-05-25T03:49:50;12.20;;;8.27;;
948;SDS011;461;51.436;7.312;2023-05-25T03:56:14;11.07;;;8.57;;
948;SDS011;461;51.436;7.312;2023-05-25T03:59:22;16.00;;;8.10;;
948;SDS011;461;51.436;7.312;2023-05-25T04:02:13;18.60;;;9.90;;
948;SDS011;461;51.436;7.312;2023-05-25T04:05:07;23.47;;;9.13;;
948;SDS011;461;51.436;7.312;2023-05-25T04:07:51;14.70;;;8.90;;
948;SDS011;461;51.436;7.312;2023-05-25T04:10:59;13.53;;;8.30;;
948;SDS011;461;51.436;7.312;2023-05-25T04:17:34;19.27;;;10.90;;
948;SDS011;461;51.436;7.312;2023-05-25T04:20:20;14.27;;;8.47;;
948;SDS011;461;51.436;7.312;2023-05-25T04:22:50;12.30;;;7.93;;
948;SDS011;461;51.436;7.312;2023-05-25T04:25:19;12.07;;;8.63;;
948;SDS011;461;51.436;7.312;2023-05-25T04:28:00;13.33;;;8.80;;
948;SDS011;461;51.436;7.312;2023-05-25T04:30:56;14.10;;;9.50;;
948;SDS011;461;51.436;7.312;2023-05-25T04:33:43;9.77;;;8.07;;
948;SDS011;461;51.436;7.312;2023-05-25T04:40:00;15.97;;;8.53;;
948;SDS011;461;51.436;7.312;2023-05-25T04:43:08;13.93;;;9.03;;
948;SDS011;461;51.436;7.312;2023-05-25T04:45:57;15.67;;;8.53;;
948;SDS011;461;51.436;7.312;2023-05-25T05:35:17;19.37;;;11.00;;
948;SDS011;461;51.436;7.312;2023-05-25T05:48:48;23.20;;;10.83;;
948;SDS011;461;51.436;7.312;2023-05-25T05:51:17;21.40;;;10.40;;
948;SDS011;461;51.436;7.312;2023-05-25T05:53:48;18.53;;;11.70;;
948;SDS011;461;51.436;7.312;2023-05-25T05:56:19;15.83;;;10.17;;
948;SDS011;461;51.436;7.312;2023-05-25T05:58:47;21.90;;;11.07;;
948;SDS011;461;51.436;7.312;2023-05-25T06:01:15;20.27;;;10.80;;
948;SDS011;461;51.436;7.312;2023-05-25T06:03:42;22.07;;;10.17;;
948;SDS011;461;51.436;7.312;2023-05-25T06:06:09;18.63;;;10.23;;
948;SDS011;461;51.436;7.312;2023-05-25T06:08:36;16.30;;;12.00;;
948;SDS011;461;51.436;7.312;2023-05-25T06:11:02;18.73;;;11.00;;
948;SDS011;461;51.436;7.312;2023-05-25T06:13:28;22.70;;;11.10;;
948;SDS011;461;51.436;7.312;2023-05-25T06:15:54;19.30;;;10.07;;
948;SDS011;461;51.436;7.312;2023-05-25T06:18:20;16.10;;;10.00;;
948;SDS011;461;51.436;7.312;2023-05-25T06:20:47;25.23;;;12.00;;
948;SDS011;461;51.436;7.312;2023-05-25T06:23:13;16.27;;;11.57;;
948;SDS011;461;51.436;7.312;2023-05-25T06:25:39;22.97;;;11.77;;
948;SDS011;461;51.436;7.312;2023-05-25T06:28:06;26.43;;;13.20;;
948;SDS011;461;51.436;7.312;2023-05-25T06:30:33;23.50;;;13.70;;
948;SDS011;461;51.436;7.312;2023-05-25T06:32:59;17.37;;;12.97;;
948;SDS011;461;51.436;7.312;2023-05-25T06:35:25;18.37;;;13.20;;
948;SDS011;461;51.436;7.312;2023-05-25T06:37:52;20.53;;;12.30;;
948;SDS011;461;51.436;7.312;2023-05-25T06:40:19;17.20;;;12.20;;
948;SDS011;461;51.436;7.312;2023-05-25T06:42:48;18.07;;;12.73;;
948;SDS011;461;51.436;7.312;2023-05-25T06:45:16;26.80;;;12.80;;
948;SDS011;461;51.436;7.312;2023-05-25T06:47:44;20.27;;;12.60;;
948;SDS011;461;51.436;7.312;2023-05-25T06:50:13;25.87;;;13.67;;
948;SDS011;461;51.436;7.312;2023-05-25T06:52:43;16.43;;;13.57;;
948;SDS011;461;51.436;7.312;2023-05-25T06:55:14;19.60;;;13.00;;
948;SDS011;461;51.436;7.312;2023-05-25T06:57:41;22.83;;;13.13;;
948;SDS011;461;51.436;7.312;2023-05-25T07:00:08;18.87;;;11.80;;
948;SDS011;461;51.436;7.312;2023-05-25T07:02:36;22.80;;;12.43;;
948;SDS011;461;51.436;7.312;2023-05-25T07:05:02;23.53;;;12.13;;
948;SDS011;461;51.436;7.312;2023-05-25T07:07:30;15.70;;;11.57;;
948;SDS011;461;51.436;7.312;2023-05-25T07:09:58;15.40;;;10.90;;
948;SDS011;461;51.436;7.312;2023-05-25T07:12:26;13.10;;;8.53;;
948;SDS011;461;51.436;7.312;2023-05-25T07:14:52;22.67;;;10.30;;
948;SDS011;461;51.436;7.312;2023-05-25T07:19:55;14.73;;;8.93;;
948;SDS011;461;51.436;7.312;2023-05-25T07:22:22;17.77;;;10.90;;
948;SDS011;461;51.436;7.312;2023-05-25T07:24:51;14.60;;;10.50;;
948;SDS011;461;51.436;7.312;2023-05-25T07:27:17;14.97;;;10.27;;
948;SDS011;461;51.436;7.312;2023-05-25T07:32:23;16.60;;;9.90;;
948;SDS011;461;51.436;7.312;2023-05-25T07:34:50;23.23;;;11.27;;
948;SDS011;461;51.436;7.312;2023-05-25T07:37:16;25.23;;;10.50;;
948;SDS011;461;51.436;7.312;2023-05-25T07:39:44;15.47;;;8.80;;
948;SDS011;461;51.436;7.312;2023-05-25T07:42:11;18.73;;;8.80;;
948;SDS011;461;51.436;7.312;2023-05-25T07:47:13;18.10;;;9.60;;
948;SDS011;461;51.436;7.312;2023-05-25T07:49:39;14.67;;;9.07;;
948;SDS011;461;51.436;7.312;2023-05-25T07:52:06;11.03;;;9.13;;
948;SDS011;461;51.436;7.312;2023-05-25T07:54:32;18.70;;;9.27;;
948;SDS011;461;51.436;7.312;2023-05-25T07:57:04;17.83;;;8.90;;
948;SDS011;461;51.436;7.312;2023-05-25T07:59:34;14.43;;;9.07;;
948;SDS011;461;51.436;7.312;2023-05-25T08:02:01;19.17;;;12.10;;
948;SDS011;461;51.436;7.312;2023-05-25T08:04:29;16.50;;;12.53;;
948;SDS011;461;51.436;7.312;2023-05-25T08:06:55;18.30;;;9.37;;
948;SDS011;461;51.436;7.312;2023-05-25T08:09:22;18.00;;;12.47;;
948;SDS011;461;51.436;7.312;2023-05-25T08:11:49;23.70;;;19.07;;
948;SDS011;461;51.436;7.312;2023-05-25T08:14:16;22.80;;;17.37;;
948;SDS011;461;51.436;7.312;2023-05-25T08:16:42;26.23;;;19.10;;
948;SDS011;461;51.436;7.312;2023-05-25T08:19:10;23.83;;;17.20;;
948;SDS011;461;51.436;7.312;2023-05-25T08:21:36;21.57;;;14.43;;
948;SDS011;461;51.436;7.312;2023-05-25T08:24:03;15.53;;;11.40;;
948;SDS011;461;51.436;7.312;2023-05-25T08:26:32;12.60;;;10.63;;
948;SDS011;461;51.436;7.312;2023-05-25T08:29:03;14.90;;;11.50;;
948;SDS011;461;51.436;7.312;2023-05-25T08:31:30;14.60;;;12.40;;
948;SDS011;461;51.436;7.312;2023-05-25T08:33:58;19.10;;;12.37;;
948;SDS011;461;51.436;7.312;2023-05-25T08:36:26;18.10;;;12.30;;
948;SDS011;461;51.436;7.312;2023-05-25T08:38:52;24.63;;;13.20;;
948;SDS011;461;51.436;7.312;2023-05-25T08:41:19;27.43;;;13.10;;
948;SDS011;461;51.436;7.312;2023-05-25T08:43:45;20.43;;;14.70;;
948;SDS011;461;51.436;7.312;2023-05-25T08:46:12;17.90;;;13.77;;
948;SDS011;461;51.436;7.312;2023-05-25T08:48:39;17.90;;;14.97;;
948;SDS011;461;51.436;7.312;2023-05-25T08:51:08;22.20;;;16.73;;
948;SDS011;461;51.436;7.312;2023-05-25T08:53:38;21.03;;;16.90;;
948;SDS011;461;51.436;7.312;2023-05-25T08:56:09;24.63;;;17.00;;
948;SDS011;461;51.436;7.312;2023-05-25T08:58:44;14.60;;;12.43;;
948;SDS011;461;51.436;7.312;2023-05-25T09:06:27;22.27;;;13.70;;
948;SDS011;461;51.436;7.312;2023-05-25T09:08:56;19.07;;;13.50;;
948;SDS011;461;51.436;7.312;2023-05-25T09:11:22;21.30;;;15.00;;
948;SDS011;461;51.436;7.312;2023-05-25T09:13:50;17.50;;;13.97;;
948;SDS011;461;51.436;7.312;2023-05-25T09:16:16;23.70;;;13.83;;
948;SDS011;461;51.436;7.312;2023-05-25T09:18:43;22.83;;;14.73;;
948;SDS011;461;51.436;7.312;2023-05-25T09:21:09;16.67;;;13.30;;
948;SDS011;461;51.436;7.312;2023-05-25T09:23:36;19.30;;;11.40;;
948;SDS011;461;51.436;7.312;2023-05-25T09:26:02;14.40;;;10.47;;
948;SDS011;461;51.436;7.312;2023-05-25T09:28:28;14.93;;;11.30;;
948;SDS011;461;51.436;7.312;2023-05-25T09:30:54;14.97;;;9.10;;
948;SDS011;461;51.436;7.312;2023-05-25T09:36:00;11.90;;;7.70;;
948;SDS011;461;51.436;7.312;2023-05-25T09:38:29;10.13;;;6.57;;
948;SDS011;461;51.436;7.312;2023-05-25T09:40:55;9.53;;;7.17;;
948;SDS011;461;51.436;7.312;2023-05-25T09:43:23;17.13;;;6.50;;
948;SDS011;461;51.436;7.312;2023-05-25T09:45:53;13.17;;;7.00;;
948;SDS011;461;51.436;7.312;2023-05-25T09:48:22;10.50;;;6.67;;
948;SDS011;461;51.436;7.312;2023-05-25T09:50:50;13.80;;;9.03;;
948;SDS011;461;51.436;7.312;2023-05-25T09:53:16;12.73;;;6.60;;
948;SDS011;461;51.436;7.312;2023-05-25T09:55:43;11.90;;;6.53;;
948;SDS011;461;51.436;7.312;2023-05-25T09:58:13;11.43;;;6.80;;
948;SDS011;461;51.436;7.312;2023-05-25T10:00:40;14.23;;;6.50;;
948;SDS011;461;51.436;7.312;2023-05-25T10:03:07;9.60;;;6.60;;
948;SDS011;461;51.436;7.312;2023-05-25T10:10:48;14.90;;;7.07;;
948;SDS011;461;51.436;7.312;2023-05-25T10:13:16;15.73;;;8.33;;
948;SDS011;461;51.436;7.312;2023-05-25T10:15:47;12.13;;;8.17;;
948;SDS011;461;51.436;7.312;2023-05-25T10:18:16;9.93;;;8.37;;
948;SDS011;461;51.436;7.312;2023-05-25T10:20:49;10.23;;;8.90;;
948;SDS011;461;51.436;7.312;2023-05-25T10:23:21;10.60;;;8.83;;
948;SDS011;461;51.436;7.312;2023-05-25T10:25:49;12.13;;;8.10;;
948;SDS011;461;51.436;7.312;2023-05-25T10:28:27;14.20;;;10.20;;
948;SDS011;461;51.436;7.312;2023-05-25T10:30:58;14.67;;;10.80;;
948;SDS011;461;51.436;7.312;2023-05-25T10:36:04;15.33;;;9.70;;
948;SDS011;461;51.436;7.312;2023-05-25T10:38:31;11.83;;;9.20;;
948;SDS011;461;51.436;7.312;2023-05-25T10:40:58;13.70;;;8.90;;
948;SDS011;461;51.436;7.312;2023-05-25T10:43:25;17.27;;;8.60;;
948;SDS011;461;51.436;7.312;2023-05-25T10:45:51;17.13;;;11.53;;
948;SDS011;461;51.436;7.312;2023-05-25T10:48:18;15.73;;;7.87;;
948;SDS011;461;51.436;7.312;2023-05-25T10:50:50;12.80;;;8.97;;
948;SDS011;461;51.436;7.312;2023-05-25T10:53:17;9.30;;;7.77;;
948;SDS011;461;51.436;7.312;2023-05-25T10:56:00;11.77;;;8.50;;
948;SDS011;461;51.436;7.312;2023-05-25T11:09:30;15.57;;;9.77;;
948;SDS011;461;51.436;7.312;2023-05-25T11:18:05;10.90;;;7.13;;
948;SDS011;461;51.436;7.312;2023-05-25T11:21:09;11.27;;;7.77;;
948;SDS011;461;51.436;7.312;2023-05-25T11:42:31;14.87;;;9.20;;
948;SDS011;461;51.436;7.312;2023-05-25T11:58:56;10.00;;;8.43;;
948;SDS011;461;51.436;7.312;2023-05-25T12:02:18;13.97;;;7.97;;
948;SDS011;461;51.436;7.312;2023-05-25T12:08:51;13.13;;;9.07;;
948;SDS011;461;51.436;7.312;2023-05-25T12:12:02;15.23;;;9.40;;
948;SDS011;461;51.436;7.312;2023-05-25T12:14:49;14.63;;;10.23;;
948;SDS011;461;51.436;7.312;2023-05-25T12:22:45;13.83;;;8.57;;
948;SDS011;461;51.436;7.312;2023-05-25T12:25:17;11.97;;;7.80;;
948;SDS011;461;51.436;7.312;2023-05-25T12:27:44;13.20;;;7.80;;
948;SDS011;461;51.436;7.312;2023-05-25T12:30:10;12.03;;;7.90;;
948;SDS011;461;51.436;7.312;2023-05-25T12:35:54;11.53;;;8.77;;
948;SDS011;461;51.436;7.312;2023-05-25T12:38:29;13.20;;;8.90;;
948;SDS011;461;51.436;7.312;2023-05-25T12:41:04;18.47;;;10.40;;
948;SDS011;461;51.436;7.312;2023-05-25T12:43:40;12.33;;;10.10;;
948;SDS011;461;51.436;7.312;2023-05-25T12:46:09;16.63;;;9.23;;
948;SDS011;461;51.436;7.312;2023-05-25T12:48:36;13.10;;;9.63;;
948;SDS011;461;51.436;7.312;2023-05-25T12:51:07;13.10;;;8.50;;
948;SDS011;461;51.436;7.312;2023-05-25T12:53:45;11.13;;;9.40;;
948;SDS011;461;51.436;7.312;2023-05-25T12:56:51;15.17;;;8.63;;
948;SDS011;461;51.436;7.312;2023-05-25T12:59:21;10.13;;;7.83;;
948;SDS011;461;51.436;7.312;2023-05-25T13:01:51;12.83;;;8.10;;
948;SDS011;461;51.436;7.312;2023-05-25T13:04:23;13.63;;;8.20;;
948;SDS011;461;51.436;7.312;2023-05-25T13:06:52;14.23;;;7.93;;
948;SDS011;461;51.436;7.312;2023-05-25T13:09:27;11.50;;;7.60;;
948;SDS011;461;51.436;7.312;2023-05-25T13:11:59;12.80;;;7.10;;
948;SDS011;461;51.436;7.312;2023-05-25T13:14:29;13.80;;;7.57;;
948;SDS011;461;51.436;7.312;2023-05-25T13:16:59;11.30;;;7.03;;
948;SDS011;461;51.436;7.312;2023-05-25T13:19:25;12.93;;;7.40;;
948;SDS011;461;51.436;7.312;2023-05-25T13:21:51;11.33;;;7.00;;
948;SDS011;461;51.436;7.312;2023-05-25T13:24:19;10.80;;;6.90;;
948;SDS011;461;51.436;7.312;2023-05-25T13:26:49;12.53;;;7.90;;
948;SDS011;461;51.436;7.312;2023-05-25T13:29:19;11.30;;;7.17;;
948;SDS011;461;51.436;7.312;2023-05-25T13:31:52;13.10;;;7.70;;
948;SDS011;461;51.436;7.312;2023-05-25T13:34:26;13.47;;;9.17;;
948;SDS011;461;51.436;7.312;2023-05-25T13:37:19;12.33;;;7.97;;
948;SDS011;461;51.436;7.312;2023-05-25T13:39:51;15.57;;;8.23;;
948;SDS011;461;51.436;7.312;2023-05-25T13:42:32;10.00;;;6.50;;
948;SDS011;461;51.436;7.312;2023-05-25T13:48:21;12.73;;;6.97;;
948;SDS011;461;51.436;7.312;2023-05-25T13:50:57;13.87;;;7.90;;
948;SDS011;461;51.436;7.312;2023-05-25T13:53:27;13.83;;;8.00;;
948;SDS011;461;51.436;7.312;2023-05-25T13:55:56;11.50;;;7.00;;
948;SDS011;461;51.436;7.312;2023-05-25T13:58:21;7.97;;;7.07;;
948;SDS011;461;51.436;7.312;2023-05-25T14:00:50;9.00;;;6.60;;
948;SDS011;461;51.436;7.312;2023-05-25T14:03:16;9.17;;;6.57;;
948;SDS011;461;51.436;7.312;2023-05-25T14:05:42;10.60;;;6.80;;
948;SDS011;461;51.436;7.312;2023-05-25T14:08:08;9.67;;;6.50;;
948;SDS011;461;51.436;7.312;2023-05-25T14:10:36;7.03;;;5.50;;
948;SDS011;461;51.436;7.312;2023-05-25T14:13:15;8.40;;;6.00;;
948;SDS011;461;51.436;7.312;2023-05-25T14:27:23;11.27;;;7.83;;
948;SDS011;461;51.436;7.312;2023-05-25T14:29:59;13.70;;;7.50;;
948;SDS011;461;51.436;7.312;2023-05-25T14:35:25;14.27;;;7.47;;
948;SDS011;461;51.436;7.312;2023-05-25T14:55:49;14.27;;;7.30;;
948;SDS011;461;51.436;7.312;2023-05-25T15:07:18;10.00;;;6.10;;
948;SDS011;461;51.436;7.312;2023-05-25T15:09:56;8.83;;;6.10;;
948;SDS011;461;51.436;7.312;2023-05-25T15:12:25;9.53;;;6.00;;
948;SDS011;461;51.436;7.312;2023-05-25T15:14:55;9.20;;;6.07;;
948;SDS011;461;51.436;7.312;2023-05-25T15:17:26;7.97;;;6.20;;
948;SDS011;461;51.436;7.312;2023-05-25T15:20:11;10.23;;;5.70;;
948;SDS011;461;51.436;7.312;2023-05-25T15:22:48;7.63;;;5.43;;
948;SDS011;461;51.436;7.312;2023-05-25T15:25:29;6.90;;;4.93;;
948;SDS011;461;51.436;7.312;2023-05-25T15:28:29;8.67;;;5.77;;
948;SDS011;461;51.436;7.312;2023-05-25T15:31:12;6.90;;;5.20;;
948;SDS011;461;51.436;7.312;2023-05-25T15:33:41;6.57;;;5.83;;
948;SDS011;461;51.436;7.312;2023-05-25T15:36:13;10.53;;;5.87;;
948;SDS011;461;51.436;7.312;2023-05-25T15:38:49;7.77;;;4.70;;
948;SDS011;461;51.436;7.312;2023-05-25T15:41:24;49.77;;;8.20;;
948;SDS011;461;51.436;7.312;2023-05-25T15:43:52;8.23;;;5.67;;
948;SDS011;461;51.436;7.312;2023-05-25T15:46:22;9.17;;;5.13;;
948;SDS011;461;51.436;7.312;2023-05-25T15:48:48;8.30;;;5.13;;
948;SDS011;461;51.436;7.312;2023-05-25T15:51:14;9.07;;;5.80;;
948;SDS011;461;51.436;7.312;2023-05-25T15:53:40;11.07;;;6.50;;
948;SDS011;461;51.436;7.312;2023-05-25T15:56:06;8.70;;;5.80;;
948;SDS011;461;51.436;7.312;2023-05-25T15:58:36;10.07;;;5.40;;
948;SDS011;461;51.436;7.312;2023-05-25T16:01:09;8.30;;;5.60;;
948;SDS011;461;51.436;7.312;2023-05-25T16:03:35;15.03;;;6.40;;
948;SDS011;461;51.436;7.312;2023-05-25T16:06:01;11.23;;;5.90;;
948;SDS011;461;51.436;7.312;2023-05-25T16:08:31;9.70;;;4.70;;
948;SDS011;461;51.436;7.312;2023-05-25T16:11:00;11.80;;;5.87;;
948;SDS011;461;51.436;7.312;2023-05-25T16:13:36;13.40;;;5.73;;
948;SDS011;461;51.436;7.312;2023-05-25T16:16:03;10.70;;;4.90;;
948;SDS011;461;51.436;7.312;2023-05-25T16:18:38;7.30;;;5.50;;
948;SDS011;461;51.436;7.312;2023-05-25T16:21:33;10.63;;;5.97;;
948;SDS011;461;51.436;7.312;2023-05-25T16:24:04;10.07;;;5.23;;
948;SDS011;461;51.436;7.312;2023-05-25T16:26:38;12.50;;;5.33;;
948;SDS011;461;51.436;7.312;2023-05-25T16:38:42;11.13;;;6.37;;
948;SDS011;461;51.436;7.312;2023-05-25T16:53:19;6.87;;;4.33;;
948;SDS011;461;51.436;7.312;2023-05-25T16:56:03;10.90;;;6.20;;
948;SDS011;461;51.436;7.312;2023-05-25T16:58:49;7.93;;;6.20;;
948;SDS011;461;51.436;7.312;2023-05-25T17:01:19;9.60;;;7.93;;
948;SDS011;461;51.436;7.312;2023-05-25T17:03:45;9.77;;;6.83;;
948;SDS011;461;51.436;7.312;2023-05-25T17:06:11;12.20;;;6.30;;
948;SDS011;461;51.436;7.312;2023-05-25T17:08:39;12.27;;;6.00;;
948;SDS011;461;51.436;7.312;2023-05-25T17:11:05;11.43;;;6.33;;
948;SDS011;461;51.436;7.312;2023-05-25T17:13:31;9.07;;;5.90;;
948;SDS011;461;51.436;7.312;2023-05-25T17:15:57;10.73;;;5.67;;
948;SDS011;461;51.436;7.312;2023-05-25T17:18:29;11.80;;;6.33;;
948;SDS011;461;51.436;7.312;2023-05-25T17:21:01;9.33;;;6.50;;
948;SDS011;461;51.436;7.312;2023-05-25T17:23:27;10.60;;;6.20;;
948;SDS011;461;51.436;7.312;2023-05-25T17:25:53;8.77;;;5.87;;
948;SDS011;461;51.436;7.312;2023-05-25T17:28:20;11.60;;;5.20;;
948;SDS011;461;51.436;7.312;2023-05-25T17:30:57;9.80;;;6.17;;
948;SDS011;461;51.436;7.312;2023-05-25T17:33:27;11.60;;;6.07;;
948;SDS011;461;51.436;7.312;2023-05-25T17:35:56;8.17;;;5.03;;
948;SDS011;461;51.436;7.312;2023-05-25T17:38:26;11.57;;;5.90;;
948;SDS011;461;51.436;7.312;2023-05-25T17:41:06;8.63;;;5.67;;
948;SDS011;461;51.436;7.312;2023-05-25T17:43:34;12.03;;;6.50;;
948;SDS011;461;51.436;7.312;2023-05-25T17:46:05;10.33;;;6.30;;
948;SDS011;461;51.436;7.312;2023-05-25T17:48:31;14.57;;;5.93;;
948;SDS011;461;51.436;7.312;2023-05-25T17:51:17;10.47;;;4.90;;
948;SDS011;461;51.436;7.312;2023-05-25T17:59:06;10.20;;;5.37;;
948;SDS011;461;51.436;7.312;2023-05-25T18:04:26;11.40;;;6.53;;
948;SDS011;461;51.436;7.312;2023-05-25T18:07:03;12.40;;;6.20;;
948;SDS011;461;51.436;7.312;2023-05-25T18:09:29;8.70;;;6.17;;
948;SDS011;461;51.436;7.312;2023-05-25T18:11:55;12.40;;;5.80;;
948;SDS011;461;51.436;7.312;2023-05-25T18:14:21;13.23;;;6.27;;
948;SDS011;461;51.436;7.312;2023-05-25T18:16:47;8.00;;;6.10;;
948;SDS011;461;51.436;7.312;2023-05-25T18:22:17;9.23;;;5.60;;
948;SDS011;461;51.436;7.312;2023-05-25T18:24:43;10.60;;;5.73;;
948;SDS011;461;51.436;7.312;2023-05-25T18:27:09;8.13;;;5.67;;
948;SDS011;461;51.436;7.312;2023-05-25T18:29:36;7.03;;;5.13;;
948;SDS011;461;51.436;7.312;2023-05-25T18:32:21;7.27;;;4.77;;
948;SDS011;461;51.436;7.312;2023-05-25T18:34:51;10.90;;;5.70;;
948;SDS011;461;51.436;7.312;2023-05-25T18:40:09;10.67;;;5.60;;
948;SDS011;461;51.436;7.312;2023-05-25T18:42:38;9.90;;;5.37;;
948;SDS011;461;51.436;7.312;2023-05-25T18:45:05;9.03;;;5.50;;
948;SDS011;461;51.436;7.312;2023-05-25T18:47:31;7.20;;;4.77;;
948;SDS011;461;51.436;7.312;2023-05-25T18:49:58;9.00;;;4.23;;
948;SDS011;461;51.436;7.312;2023-05-25T18:52:25;8.97;;;5.17;;
948;SDS011;461;51.436;7.312;2023-05-25T18:54:51;7.80;;;4.70;;
948;SDS011;461;51.436;7.312;2023-05-25T18:57:30;7.73;;;5.40;;
948;SDS011;461;51.436;7.312;2023-05-25T19:00:06;7.80;;;5.17;;
948;SDS011;461;51.436;7.312;2023-05-25T19:02:41;6.87;;;4.60;;
948;SDS011;461;51.436;7.312;2023-05-25T19:05:33;8.60;;;5.10;;
948;SDS011;461;51.436;7.312;2023-05-25T19:08:14;6.93;;;4.93;;
948;SDS011;461;51.436;7.312;2023-05-25T19:10:40;9.43;;;5.20;;
948;SDS011;461;51.436;7.312;2023-05-25T19:13:14;12.23;;;5.57;;
948;SDS011;461;51.436;7.312;2023-05-25T19:16:03;10.53;;;5.00;;
948;SDS011;461;51.436;7.312;2023-05-25T19:21:29;7.43;;;5.20;;
948;SDS011;461;51.436;7.312;2023-05-25T19:24:06;8.80;;;6.33;;
948;SDS011;461;51.436;7.312;2023-05-25T19:26:39;6.33;;;4.40;;
948;SDS011;461;51.436;7.312;2023-05-25T19:29:12;9.80;;;5.17;;
948;SDS011;461;51.436;7.312;2023-05-25T19:31:41;7.80;;;5.10;;
948;SDS011;461;51.436;7.312;2023-05-25T19:37:21;9.00;;;5.50;;
948;SDS011;461;51.436;7.312;2023-05-25T19:46:19;11.83;;;6.17;;
948;SDS011;461;51.436;7.312;2023-05-25T19:48:51;11.57;;;7.07;;
948;SDS011;461;51.436;7.312;2023-05-25T19:54:56;8.60;;;5.00;;
948;SDS011;461;51.436;7.312;2023-05-25T20:00:03;9.00;;;5.87;;
948;SDS011;461;51.436;7.312;2023-05-25T20:08:28;9.30;;;5.80;;
948;SDS011;461;51.436;7.312;2023-05-25T21:46:45;15.53;;;7.73;;
